Nearby METAR Reports

 

KMTN - Baltimore/Martin, Maryland, USA
Distance from station: SSE 8mi, 13km
Updated: Wed, 28-Jan-2015 2:45pm EST
Clear
Clear
 Wind from NW
Wind: NW 14 mph , 22 km/h, Gust: 20 mph , 31 km/h
Temperature: 37°F , 3°C
Wind Chill: 28°F , -2°C
Dew Point: 7°F , -14°C
Humidity: 28%
Barometer: 30.20 inHg , 1022.7 hPa
Clouds: Clear
Visibility: 10 miles , 16 km
2015/01/28 19:45 KMTN 281945Z 31012G17KT 10SM SKC 03/M14 A3020
KDMH - Baltimore/Dwntwn, Maryland, USA
Distance from station: SW 12mi, 19km
Updated: Wed, 28-Jan-2015 2:54pm EST

 
Temperature: 36°F , 2°C
Dew Point: 1°F , -17°C
Humidity: 23%
Barometer: 30.21 inHg , 1023 hPa
2015/01/28 19:54 KDMH 281954Z AUTO 02/M17 A3021 RMK AO1 SLP228 T00171172
 
KBWI - Balto/Wash Intl, Maryland, USA
Distance from station: SSW 20mi, 33km
Updated: Wed, 28-Jan-2015 2:54pm EST
Clear
Clear
 Wind from WNW
Wind: WNW 16 mph , 26 km/h, Gust: 21 mph , 33 km/h
Temperature: 36°F , 2°C
Wind Chill: 26°F , -3°C
Dew Point: 7°F , -14°C
Humidity: 30%
Barometer: 30.20 inHg , 1022.7 hPa
Clouds: Clear
Visibility: 10 miles , 16 km
2015/01/28 19:54 KBWI 281954Z 30014G18KT 10SM CLR 02/M14 A3020 RMK AO2 SLP227 T00221144
KDMW - Carroll Cnty, Maryland, USA
Distance from station: WNW 30mi, 48km
Updated: Wed, 28-Jan-2015 3:05pm EST
Clear
Clear
 Wind from NW
Wind: NW 12 mph , 19 km/h
Temperature: 30°F , -1°C
Wind Chill: 20°F , -7°C
Dew Point: 3°F , -16°C
Humidity: 31%
Barometer: 30.18 inHg , 1022 hPa
Clouds: Clear
Visibility: 10 miles , 16 km
2015/01/28 20:05 KDMW 282005Z AUTO 31010KT 10SM CLR M01/M16 A3018 RMK AO2
 
KNAK - Annapolis/Naval, Maryland, USA
Distance from station: S 30mi, 48km
Updated: Wed, 28-Jan-2015 2:54pm EST
Clear
Clear
 Wind from NW
Wind: NW 13 mph , 20 km/h, Gust: 20 mph , 31 km/h
Temperature: 36°F , 2°C
Wind Chill: 27°F , -3°C
Dew Point: 7°F , -14°C
Humidity: 30%
Barometer: 30.20 inHg , 1022.7 hPa
Clouds: Clear
Visibility: 10 miles , 16 km
2015/01/28 19:54 KNAK 281954Z AUTO 31011G17KT 10SM CLR 02/M14 A3020 RMK AO2 SLP227 T00221139
KW29 - Stevensville, Maryland, USA
Distance from station: SSE 31mi, 50km
Updated: Wed, 28-Jan-2015 3:04pm EST

 Wind from NW
Wind: NW 13 mph , 20 km/h, Gust: 18 mph , 30 km/h
Temperature: 36°F , 2°C
Wind Chill: 27°F , -3°C
Dew Point: 9°F , -13°C
Humidity: 32%
Barometer: 30.20 inHg , 1022.7 hPa
Visibility: 10 miles , 16 km
2015/01/28 20:04 KW29 282004Z AUTO 32011G16KT 10SM 02/M13 A3020 RMK AO1
 
KCGS - College Park, Maryland, USA
Distance from station: SW 38mi, 61km
Updated: Wed, 28-Jan-2015 3:05pm EST
Clear
Clear
 Wind from NW
Wind: NW 10 mph , 17 km/h, Gust: 16 mph , 26 km/h
Temperature: 36°F , 2°C
Wind Chill: 29°F , -2°C
Dew Point: 7°F , -14°C
Humidity: 30%
Barometer: 30.23 inHg , 1023.7 hPa
Clouds: Clear
Visibility: 10 miles , 16 km
2015/01/28 20:05 KCGS 282005Z AUTO 32009G14KT 10SM CLR 02/M14 A3023 RMK AO1
KGAI - Gaithersburg, Maryland, USA
Distance from station: WSW 40mi, 65km
Updated: Wed, 28-Jan-2015 2:55pm EST
Clear
Clear
 Wind from WNW
Wind: WNW 14 mph , 22 km/h, Gust: 18 mph , 30 km/h
Temperature: 30°F , -1°C
Wind Chill: 19°F , -7°C
Dew Point: 9°F , -13°C
Humidity: 40%
Barometer: 30.25 inHg , 1024.4 hPa
Clouds: Clear
Visibility: 10 miles , 16 km
2015/01/28 19:55 KGAI 281955Z 30012G16KT 300V360 10SM CLR M01/M13 A3025 RMK AO1
 
KTHV - York, Pennsylvania, USA
Distance from station: NNW 40mi, 65km
Updated: Wed, 28-Jan-2015 2:53pm EST
Clear
Clear
 Wind from NW
Wind: NW 13 mph , 20 km/h
Temperature: 32°F , 0°C
Wind Chill: 22°F , -6°C
Dew Point: 3°F , -16°C
Humidity: 29%
Barometer: 30.19 inHg , 1022.4 hPa
Clouds: Clear
Visibility: 10 miles , 16 km
2015/01/28 19:53 KTHV 281953Z AUTO 32011KT 10SM CLR 00/M16 A3019 RMK AO2 SLP233 T00001161
KFDK - Frederick, Maryland, USA
Distance from station: W 47mi, 75km
Updated: Wed, 28-Jan-2015 2:55pm EST

 Wind from NW
Wind: NW 15 mph , 24 km/h, Gust: 23 mph , 37 km/h
Temperature: 36°F , 2°C
Wind Chill: 27°F , -3°C
Dew Point: 3°F , -16°C
Humidity: 25%
Visibility: 10 miles , 16 km
2015/01/28 19:55 KFDK 281955Z 32013G20KT 10SM 02/M16 02/M16 A3025
 
KESN - Easton/Newnam, Maryland, USA
Distance from station: SSE 48mi, 78km
Updated: Wed, 28-Jan-2015 2:45pm EST
Clear
Clear
 Wind from NNW
Wind: NNW 13 mph , 20 km/h, Gust: 21 mph , 33 km/h
Temperature: 37°F , 3°C
Wind Chill: 29°F , -2°C
Dew Point: 10°F , -12°C
Humidity: 33%
Barometer: 30.21 inHg , 1023 hPa
Clouds: Clear
Visibility: 10 miles , 16 km
2015/01/28 19:45 KESN 281945Z 33011G18KT 10SM SKC 03/M12 A3021
KDCA - Washington/Natl, Washington D.c., USA
Distance from station: SW 49mi, 79km
Updated: Wed, 28-Jan-2015 2:52pm EST
Clear
Clear
 Wind from WNW
Wind: WNW 14 mph , 22 km/h, Gust: 22 mph , 35 km/h
Temperature: 37°F , 3°C
Wind Chill: 28°F , -2°C
Dew Point: 7°F , -14°C
Humidity: 28%
Barometer: 30.24 inHg , 1024 hPa
Clouds: Clear
Visibility: 10 miles , 16 km
2015/01/28 19:52 KDCA 281952Z 30012G19KT 10SM CLR 03/M14 A3024 RMK AO2 SLP239 T00331139
 
KLNS - Lancaster, Pennsylvania, USA
Distance from station: N 49mi, 79km
Updated: Wed, 28-Jan-2015 2:53pm EST
Clear
Clear
 Wind from NW
Wind: NW 10 mph , 17 km/h
Temperature: 30°F , -1°C
Wind Chill: 21°F , -6°C
Dew Point: 3°F , -16°C
Humidity: 31%
Barometer: 30.17 inHg , 1021.7 hPa
Clouds: Clear
Visibility: 10 miles , 16 km
2015/01/28 19:53 KLNS 281953Z 31009KT 10SM CLR M01/M16 A3017 RMK AO2 SLP221 T10111161
KILG - Wilmington, Delaware, USA
Distance from station: ENE 50mi, 81km
Updated: Wed, 28-Jan-2015 2:51pm EST
Clear
Clear
 Wind from NNW
Wind: NNW 13 mph , 20 km/h, Gust: 22 mph , 35 km/h
Temperature: 34°F , 1°C
Wind Chill: 25°F , -4°C
Dew Point: 1°F , -17°C
Humidity: 25%
Barometer: 30.17 inHg , 1021.7 hPa
Clouds: Clear
Visibility: 10 miles , 16 km
2015/01/28 19:51 KILG 281951Z 34011G19KT 10SM CLR 01/M17 A3017 RMK AO2 SLP216 T00111167